sensor_id;sensor_type;location;lat;lon;timestamp;P1;durP1;ratioP1;P2;durP2;ratioP2
65047;SDS011;52089;51.362;-2.384;2022-12-18T00:00:56;10.63;;;5.60;;
65047;SDS011;52089;51.362;-2.384;2022-12-18T00:04:38;10.60;;;5.10;;
65047;SDS011;52089;51.362;-2.384;2022-12-18T00:08:20;8.83;;;4.97;;
65047;SDS011;52089;51.362;-2.384;2022-12-18T00:12:02;11.03;;;5.23;;
65047;SDS011;52089;51.362;-2.384;2022-12-18T00:16:00;15.17;;;6.27;;
65047;SDS011;52089;51.362;-2.384;2022-12-18T00:19:47;8.20;;;4.85;;
65047;SDS011;52089;51.362;-2.384;2022-12-18T00:23:29;13.70;;;7.20;;
65047;SDS011;52089;51.362;-2.384;2022-12-18T00:27:11;13.97;;;7.17;;
65047;SDS011;52089;51.362;-2.384;2022-12-18T00:31:26;11.70;;;6.37;;
65047;SDS011;52089;51.362;-2.384;2022-12-18T00:35:03;10.40;;;5.30;;
65047;SDS011;52089;51.362;-2.384;2022-12-18T00:38:45;13.33;;;5.60;;
65047;SDS011;52089;51.362;-2.384;2022-12-18T00:42:28;10.43;;;6.00;;
65047;SDS011;52089;51.362;-2.384;2022-12-18T00:46:28;10.73;;;5.40;;
65047;SDS011;52089;51.362;-2.384;2022-12-18T00:50:10;8.57;;;5.10;;
65047;SDS011;52089;51.362;-2.384;2022-12-18T00:53:52;7.50;;;4.80;;
65047;SDS011;52089;51.362;-2.384;2022-12-18T00:57:34;9.53;;;4.87;;
65047;SDS011;52089;51.362;-2.384;2022-12-18T01:01:16;24.00;;;13.23;;
65047;SDS011;52089;51.362;-2.384;2022-12-18T01:04:59;11.90;;;5.83;;
65047;SDS011;52089;51.362;-2.384;2022-12-18T01:08:41;10.93;;;5.20;;
65047;SDS011;52089;51.362;-2.384;2022-12-18T01:12:22;11.33;;;5.33;;
65047;SDS011;52089;51.362;-2.384;2022-12-18T01:16:05;8.27;;;5.10;;
65047;SDS011;52089;51.362;-2.384;2022-12-18T01:19:47;9.27;;;5.33;;
65047;SDS011;52089;51.362;-2.384;2022-12-18T01:23:29;10.07;;;5.60;;
65047;SDS011;52089;51.362;-2.384;2022-12-18T01:27:11;8.33;;;4.77;;
65047;SDS011;52089;51.362;-2.384;2022-12-18T01:30:53;12.57;;;6.03;;
65047;SDS011;52089;51.362;-2.384;2022-12-18T01:34:35;12.70;;;6.00;;
65047;SDS011;52089;51.362;-2.384;2022-12-18T01:38:17;10.43;;;5.13;;
65047;SDS011;52089;51.362;-2.384;2022-12-18T01:41:59;12.00;;;5.73;;
65047;SDS011;52089;51.362;-2.384;2022-12-18T01:45:43;11.20;;;5.63;;
65047;SDS011;52089;51.362;-2.384;2022-12-18T01:49:25;10.20;;;5.03;;
65047;SDS011;52089;51.362;-2.384;2022-12-18T01:53:11;8.60;;;4.77;;
65047;SDS011;52089;51.362;-2.384;2022-12-18T01:56:55;13.37;;;5.73;;
65047;SDS011;52089;51.362;-2.384;2022-12-18T02:00:37;10.53;;;5.53;;
65047;SDS011;52089;51.362;-2.384;2022-12-18T02:04:23;10.40;;;4.90;;
65047;SDS011;52089;51.362;-2.384;2022-12-18T02:08:12;12.00;;;6.33;;
65047;SDS011;52089;51.362;-2.384;2022-12-18T02:12:13;14.87;;;5.30;;
65047;SDS011;52089;51.362;-2.384;2022-12-18T02:27:52;11.18;;;6.80;;
65047;SDS011;52089;51.362;-2.384;2022-12-18T02:31:38;11.20;;;6.27;;
65047;SDS011;52089;51.362;-2.384;2022-12-18T02:35:24;12.70;;;6.57;;
65047;SDS011;52089;51.362;-2.384;2022-12-18T02:39:09;10.17;;;5.27;;
65047;SDS011;52089;51.362;-2.384;2022-12-18T02:42:53;17.10;;;6.70;;
65047;SDS011;52089;51.362;-2.384;2022-12-18T02:46:36;10.43;;;5.87;;
65047;SDS011;52089;51.362;-2.384;2022-12-18T02:54:23;9.23;;;5.20;;
65047;SDS011;52089;51.362;-2.384;2022-12-18T02:58:19;12.43;;;6.53;;
65047;SDS011;52089;51.362;-2.384;2022-12-18T03:10:18;14.83;;;6.33;;
65047;SDS011;52089;51.362;-2.384;2022-12-18T03:14:07;10.60;;;6.18;;
65047;SDS011;52089;51.362;-2.384;2022-12-18T03:17:58;11.63;;;6.23;;
65047;SDS011;52089;51.362;-2.384;2022-12-18T03:21:47;13.17;;;6.27;;
65047;SDS011;52089;51.362;-2.384;2022-12-18T03:25:32;14.27;;;6.93;;
65047;SDS011;52089;51.362;-2.384;2022-12-18T03:29:21;12.37;;;6.60;;
65047;SDS011;52089;51.362;-2.384;2022-12-18T03:33:09;13.77;;;6.50;;
65047;SDS011;52089;51.362;-2.384;2022-12-18T03:36:54;15.90;;;6.97;;
65047;SDS011;52089;51.362;-2.384;2022-12-18T03:44:46;13.13;;;7.10;;
65047;SDS011;52089;51.362;-2.384;2022-12-18T03:48:39;13.67;;;8.30;;
65047;SDS011;52089;51.362;-2.384;2022-12-18T03:52:30;14.50;;;8.27;;
65047;SDS011;52089;51.362;-2.384;2022-12-18T03:56:17;18.93;;;9.63;;
65047;SDS011;52089;51.362;-2.384;2022-12-18T04:00:06;17.70;;;8.73;;
65047;SDS011;52089;51.362;-2.384;2022-12-18T04:03:59;15.33;;;8.80;;
65047;SDS011;52089;51.362;-2.384;2022-12-18T04:07:43;14.63;;;8.27;;
65047;SDS011;52089;51.362;-2.384;2022-12-18T04:11:27;15.07;;;9.00;;
65047;SDS011;52089;51.362;-2.384;2022-12-18T04:15:10;21.30;;;10.97;;
65047;SDS011;52089;51.362;-2.384;2022-12-18T04:18:53;16.97;;;9.93;;
65047;SDS011;52089;51.362;-2.384;2022-12-18T04:22:35;23.20;;;10.30;;
65047;SDS011;52089;51.362;-2.384;2022-12-18T04:26:16;19.20;;;10.03;;
65047;SDS011;52089;51.362;-2.384;2022-12-18T04:29:58;20.50;;;10.37;;
65047;SDS011;52089;51.362;-2.384;2022-12-18T04:33:40;21.10;;;11.20;;
65047;SDS011;52089;51.362;-2.384;2022-12-18T04:37:23;19.07;;;10.27;;
65047;SDS011;52089;51.362;-2.384;2022-12-18T04:41:04;22.33;;;10.87;;
65047;SDS011;52089;51.362;-2.384;2022-12-18T04:44:47;18.57;;;10.37;;
65047;SDS011;52089;51.362;-2.384;2022-12-18T04:48:29;21.63;;;11.00;;
65047;SDS011;52089;51.362;-2.384;2022-12-18T04:52:13;19.77;;;11.40;;
65047;SDS011;52089;51.362;-2.384;2022-12-18T04:56:05;19.23;;;10.73;;
65047;SDS011;52089;51.362;-2.384;2022-12-18T04:59:49;20.20;;;10.37;;
65047;SDS011;52089;51.362;-2.384;2022-12-18T05:03:31;20.53;;;10.30;;
65047;SDS011;52089;51.362;-2.384;2022-12-18T05:07:13;18.83;;;10.37;;
65047;SDS011;52089;51.362;-2.384;2022-12-18T05:10:59;23.13;;;11.33;;
65047;SDS011;52089;51.362;-2.384;2022-12-18T05:14:42;20.70;;;10.90;;
65047;SDS011;52089;51.362;-2.384;2022-12-18T05:18:24;22.17;;;10.73;;
65047;SDS011;52089;51.362;-2.384;2022-12-18T05:22:06;21.93;;;11.83;;
65047;SDS011;52089;51.362;-2.384;2022-12-18T05:25:53;23.17;;;11.73;;
65047;SDS011;52089;51.362;-2.384;2022-12-18T05:29:36;22.33;;;11.33;;
65047;SDS011;52089;51.362;-2.384;2022-12-18T05:33:21;25.13;;;11.10;;
65047;SDS011;52089;51.362;-2.384;2022-12-18T05:41:03;22.17;;;11.30;;
65047;SDS011;52089;51.362;-2.384;2022-12-18T05:44:46;23.07;;;11.77;;
65047;SDS011;52089;51.362;-2.384;2022-12-18T05:48:27;25.70;;;12.40;;
65047;SDS011;52089;51.362;-2.384;2022-12-18T05:52:09;26.23;;;12.70;;
65047;SDS011;52089;51.362;-2.384;2022-12-18T05:55:51;26.90;;;12.40;;
65047;SDS011;52089;51.362;-2.384;2022-12-18T05:59:32;25.53;;;11.43;;
65047;SDS011;52089;51.362;-2.384;2022-12-18T06:03:14;22.50;;;12.43;;
65047;SDS011;52089;51.362;-2.384;2022-12-18T06:06:56;24.67;;;12.53;;
65047;SDS011;52089;51.362;-2.384;2022-12-18T06:10:39;26.20;;;12.43;;
65047;SDS011;52089;51.362;-2.384;2022-12-18T06:14:22;26.47;;;13.10;;
65047;SDS011;52089;51.362;-2.384;2022-12-18T06:18:03;26.03;;;13.47;;
65047;SDS011;52089;51.362;-2.384;2022-12-18T06:21:45;24.67;;;12.40;;
65047;SDS011;52089;51.362;-2.384;2022-12-18T06:25:27;27.03;;;12.73;;
65047;SDS011;52089;51.362;-2.384;2022-12-18T06:29:09;26.13;;;13.67;;
65047;SDS011;52089;51.362;-2.384;2022-12-18T06:32:51;25.80;;;12.87;;
65047;SDS011;52089;51.362;-2.384;2022-12-18T06:36:37;28.03;;;13.60;;
65047;SDS011;52089;51.362;-2.384;2022-12-18T06:40:19;29.47;;;13.63;;
65047;SDS011;52089;51.362;-2.384;2022-12-18T06:44:01;27.40;;;13.67;;
65047;SDS011;52089;51.362;-2.384;2022-12-18T06:47:43;28.07;;;13.50;;
65047;SDS011;52089;51.362;-2.384;2022-12-18T06:51:25;25.17;;;11.87;;
65047;SDS011;52089;51.362;-2.384;2022-12-18T06:55:07;26.43;;;13.43;;
65047;SDS011;52089;51.362;-2.384;2022-12-18T06:58:49;24.17;;;13.43;;
65047;SDS011;52089;51.362;-2.384;2022-12-18T07:02:31;23.83;;;13.80;;
65047;SDS011;52089;51.362;-2.384;2022-12-18T07:06:16;23.23;;;11.93;;
65047;SDS011;52089;51.362;-2.384;2022-12-18T07:10:00;23.83;;;12.30;;
65047;SDS011;52089;51.362;-2.384;2022-12-18T07:13:42;22.90;;;11.83;;
65047;SDS011;52089;51.362;-2.384;2022-12-18T07:17:24;19.47;;;10.83;;
65047;SDS011;52089;51.362;-2.384;2022-12-18T07:21:07;21.23;;;11.73;;
65047;SDS011;52089;51.362;-2.384;2022-12-18T07:24:50;23.27;;;11.77;;
65047;SDS011;52089;51.362;-2.384;2022-12-18T07:28:33;23.40;;;11.07;;
65047;SDS011;52089;51.362;-2.384;2022-12-18T07:32:15;23.50;;;11.03;;
65047;SDS011;52089;51.362;-2.384;2022-12-18T07:35:58;24.70;;;11.20;;
65047;SDS011;52089;51.362;-2.384;2022-12-18T07:39:43;24.40;;;11.73;;
65047;SDS011;52089;51.362;-2.384;2022-12-18T07:43:25;21.50;;;10.57;;
65047;SDS011;52089;51.362;-2.384;2022-12-18T07:47:07;22.50;;;10.67;;
65047;SDS011;52089;51.362;-2.384;2022-12-18T07:50:52;22.20;;;11.30;;
65047;SDS011;52089;51.362;-2.384;2022-12-18T07:54:34;19.63;;;10.17;;
65047;SDS011;52089;51.362;-2.384;2022-12-18T07:58:15;24.43;;;11.43;;
65047;SDS011;52089;51.362;-2.384;2022-12-18T08:01:57;22.50;;;10.53;;
65047;SDS011;52089;51.362;-2.384;2022-12-18T08:05:39;20.63;;;10.27;;
65047;SDS011;52089;51.362;-2.384;2022-12-18T08:09:21;19.77;;;9.83;;
65047;SDS011;52089;51.362;-2.384;2022-12-18T08:13:03;25.13;;;11.03;;
65047;SDS011;52089;51.362;-2.384;2022-12-18T08:16:45;20.27;;;10.93;;
65047;SDS011;52089;51.362;-2.384;2022-12-18T08:20:27;18.17;;;9.57;;
65047;SDS011;52089;51.362;-2.384;2022-12-18T08:24:09;18.33;;;9.00;;
65047;SDS011;52089;51.362;-2.384;2022-12-18T08:27:52;20.53;;;9.77;;
65047;SDS011;52089;51.362;-2.384;2022-12-18T08:31:33;16.57;;;8.83;;
65047;SDS011;52089;51.362;-2.384;2022-12-18T08:35:15;19.40;;;9.10;;
65047;SDS011;52089;51.362;-2.384;2022-12-18T08:38:59;22.73;;;9.87;;
65047;SDS011;52089;51.362;-2.384;2022-12-18T08:42:40;18.73;;;8.87;;
65047;SDS011;52089;51.362;-2.384;2022-12-18T08:46:41;20.53;;;9.33;;
65047;SDS011;52089;51.362;-2.384;2022-12-18T08:50:24;20.20;;;10.10;;
65047;SDS011;52089;51.362;-2.384;2022-12-18T08:54:06;18.27;;;9.03;;
65047;SDS011;52089;51.362;-2.384;2022-12-18T08:57:48;19.17;;;9.87;;
65047;SDS011;52089;51.362;-2.384;2022-12-18T09:01:30;20.93;;;9.80;;
65047;SDS011;52089;51.362;-2.384;2022-12-18T09:05:13;21.87;;;10.23;;
65047;SDS011;52089;51.362;-2.384;2022-12-18T09:08:56;20.23;;;10.27;;
65047;SDS011;52089;51.362;-2.384;2022-12-18T09:12:38;21.87;;;10.87;;
65047;SDS011;52089;51.362;-2.384;2022-12-18T09:16:20;23.93;;;11.27;;
65047;SDS011;52089;51.362;-2.384;2022-12-18T09:20:11;24.00;;;11.18;;
65047;SDS011;52089;51.362;-2.384;2022-12-18T09:23:54;26.47;;;10.57;;
65047;SDS011;52089;51.362;-2.384;2022-12-18T09:27:37;26.13;;;11.30;;
65047;SDS011;52089;51.362;-2.384;2022-12-18T09:31:20;27.47;;;12.03;;
65047;SDS011;52089;51.362;-2.384;2022-12-18T09:35:04;25.13;;;12.03;;
65047;SDS011;52089;51.362;-2.384;2022-12-18T09:38:46;30.10;;;12.90;;
65047;SDS011;52089;51.362;-2.384;2022-12-18T09:42:28;30.70;;;13.50;;
65047;SDS011;52089;51.362;-2.384;2022-12-18T09:46:11;23.87;;;12.33;;
65047;SDS011;52089;51.362;-2.384;2022-12-18T09:50:03;25.13;;;12.13;;
65047;SDS011;52089;51.362;-2.384;2022-12-18T09:53:58;22.47;;;11.50;;
65047;SDS011;52089;51.362;-2.384;2022-12-18T09:57:47;27.50;;;12.67;;
65047;SDS011;52089;51.362;-2.384;2022-12-18T10:01:34;29.83;;;13.13;;
65047;SDS011;52089;51.362;-2.384;2022-12-18T10:13:52;23.87;;;11.87;;
65047;SDS011;52089;51.362;-2.384;2022-12-18T10:26:06;24.87;;;13.57;;
65047;SDS011;52089;51.362;-2.384;2022-12-18T10:29:50;26.37;;;13.63;;
65047;SDS011;52089;51.362;-2.384;2022-12-18T10:33:32;28.30;;;13.40;;
65047;SDS011;52089;51.362;-2.384;2022-12-18T10:37:20;30.13;;;14.93;;
65047;SDS011;52089;51.362;-2.384;2022-12-18T10:45:11;28.57;;;15.47;;
65047;SDS011;52089;51.362;-2.384;2022-12-18T10:48:58;28.50;;;15.13;;
65047;SDS011;52089;51.362;-2.384;2022-12-18T10:52:40;32.27;;;14.27;;
65047;SDS011;52089;51.362;-2.384;2022-12-18T10:56:27;32.73;;;15.37;;
65047;SDS011;52089;51.362;-2.384;2022-12-18T11:00:20;34.87;;;15.90;;
65047;SDS011;52089;51.362;-2.384;2022-12-18T11:04:07;29.40;;;15.90;;
65047;SDS011;52089;51.362;-2.384;2022-12-18T11:07:50;32.77;;;16.17;;
65047;SDS011;52089;51.362;-2.384;2022-12-18T11:11:32;29.17;;;15.33;;
65047;SDS011;52089;51.362;-2.384;2022-12-18T11:15:21;31.40;;;15.47;;
65047;SDS011;52089;51.362;-2.384;2022-12-18T11:23:19;30.55;;;15.90;;
65047;SDS011;52089;51.362;-2.384;2022-12-18T11:27:06;31.53;;;15.07;;
65047;SDS011;52089;51.362;-2.384;2022-12-18T11:35:13;29.63;;;15.43;;
65047;SDS011;52089;51.362;-2.384;2022-12-18T11:39:02;29.63;;;15.07;;
65047;SDS011;52089;51.362;-2.384;2022-12-18T11:43:02;31.23;;;15.40;;
65047;SDS011;52089;51.362;-2.384;2022-12-18T11:47:13;32.73;;;15.70;;
65047;SDS011;52089;51.362;-2.384;2022-12-18T11:51:02;31.07;;;14.87;;
65047;SDS011;52089;51.362;-2.384;2022-12-18T11:54:52;36.87;;;15.07;;
65047;SDS011;52089;51.362;-2.384;2022-12-18T12:14:39;24.17;;;12.53;;
65047;SDS011;52089;51.362;-2.384;2022-12-18T12:22:54;20.30;;;10.43;;
65047;SDS011;52089;51.362;-2.384;2022-12-18T12:26:45;21.13;;;11.33;;
65047;SDS011;52089;51.362;-2.384;2022-12-18T12:42:50;15.20;;;8.23;;
65047;SDS011;52089;51.362;-2.384;2022-12-18T12:46:55;15.10;;;8.40;;
65047;SDS011;52089;51.362;-2.384;2022-12-18T12:50:42;12.47;;;6.97;;
65047;SDS011;52089;51.362;-2.384;2022-12-18T12:54:24;12.97;;;7.13;;
65047;SDS011;52089;51.362;-2.384;2022-12-18T12:58:16;12.73;;;6.53;;
65047;SDS011;52089;51.362;-2.384;2022-12-18T13:10:56;7.90;;;5.40;;
65047;SDS011;52089;51.362;-2.384;2022-12-18T13:15:20;8.20;;;4.87;;
65047;SDS011;52089;51.362;-2.384;2022-12-18T13:19:27;8.97;;;5.13;;
65047;SDS011;52089;51.362;-2.384;2022-12-18T13:23:26;7.03;;;4.90;;
65047;SDS011;52089;51.362;-2.384;2022-12-18T13:43:14;5.10;;;3.07;;
65047;SDS011;52089;51.362;-2.384;2022-12-18T13:47:04;5.78;;;3.05;;
65047;SDS011;52089;51.362;-2.384;2022-12-18T13:54:51;5.30;;;3.40;;
65047;SDS011;52089;51.362;-2.384;2022-12-18T13:58:36;4.90;;;3.10;;
65047;SDS011;52089;51.362;-2.384;2022-12-18T14:02:22;4.67;;;3.10;;
65047;SDS011;52089;51.362;-2.384;2022-12-18T14:06:07;4.20;;;2.33;;
65047;SDS011;52089;51.362;-2.384;2022-12-18T14:09:52;4.07;;;2.30;;
65047;SDS011;52089;51.362;-2.384;2022-12-18T14:13:52;3.95;;;2.47;;
65047;SDS011;52089;51.362;-2.384;2022-12-18T14:17:34;7.37;;;4.13;;
65047;SDS011;52089;51.362;-2.384;2022-12-18T14:21:19;4.07;;;3.10;;
65047;SDS011;52089;51.362;-2.384;2022-12-18T14:25:27;2.27;;;1.20;;
65047;SDS011;52089;51.362;-2.384;2022-12-18T14:29:18;1.90;;;1.30;;
65047;SDS011;52089;51.362;-2.384;2022-12-18T14:36:54;2.37;;;1.20;;
65047;SDS011;52089;51.362;-2.384;2022-12-18T14:40:37;1.80;;;1.17;;
65047;SDS011;52089;51.362;-2.384;2022-12-18T14:44:19;2.00;;;1.30;;
65047;SDS011;52089;51.362;-2.384;2022-12-18T14:48:05;4.07;;;3.30;;
65047;SDS011;52089;51.362;-2.384;2022-12-18T14:51:51;3.93;;;2.63;;
65047;SDS011;52089;51.362;-2.384;2022-12-18T14:55:37;3.37;;;1.60;;
65047;SDS011;52089;51.362;-2.384;2022-12-18T14:59:22;2.73;;;1.00;;
65047;SDS011;52089;51.362;-2.384;2022-12-18T15:03:05;2.27;;;1.07;;
65047;SDS011;52089;51.362;-2.384;2022-12-18T15:06:50;2.20;;;0.93;;
65047;SDS011;52089;51.362;-2.384;2022-12-18T15:11:03;1.33;;;1.00;;
65047;SDS011;52089;51.362;-2.384;2022-12-18T15:19:22;3.00;;;0.87;;
65047;SDS011;52089;51.362;-2.384;2022-12-18T15:23:16;2.43;;;0.90;;
65047;SDS011;52089;51.362;-2.384;2022-12-18T15:27:20;3.33;;;1.30;;
65047;SDS011;52089;51.362;-2.384;2022-12-18T15:31:17;2.33;;;0.77;;
65047;SDS011;52089;51.362;-2.384;2022-12-18T15:35:23;1.90;;;0.93;;
65047;SDS011;52089;51.362;-2.384;2022-12-18T15:39:05;1.60;;;0.87;;
65047;SDS011;52089;51.362;-2.384;2022-12-18T15:42:47;1.87;;;1.00;;
65047;SDS011;52089;51.362;-2.384;2022-12-18T15:46:51;1.60;;;0.80;;
65047;SDS011;52089;51.362;-2.384;2022-12-18T15:50:32;1.97;;;0.90;;
65047;SDS011;52089;51.362;-2.384;2022-12-18T15:54:14;3.63;;;0.70;;
65047;SDS011;52089;51.362;-2.384;2022-12-18T15:58:19;3.00;;;0.90;;
65047;SDS011;52089;51.362;-2.384;2022-12-18T16:02:07;3.37;;;0.90;;
65047;SDS011;52089;51.362;-2.384;2022-12-18T16:05:57;2.33;;;0.90;;
65047;SDS011;52089;51.362;-2.384;2022-12-18T16:09:42;3.33;;;1.03;;
65047;SDS011;52089;51.362;-2.384;2022-12-18T16:13:24;2.03;;;0.90;;
65047;SDS011;52089;51.362;-2.384;2022-12-18T16:17:08;3.60;;;1.00;;
65047;SDS011;52089;51.362;-2.384;2022-12-18T16:20:51;2.33;;;0.90;;
65047;SDS011;52089;51.362;-2.384;2022-12-18T16:24:33;1.93;;;1.03;;
65047;SDS011;52089;51.362;-2.384;2022-12-18T16:28:17;2.87;;;0.80;;
65047;SDS011;52089;51.362;-2.384;2022-12-18T16:32:00;5.10;;;1.43;;
65047;SDS011;52089;51.362;-2.384;2022-12-18T16:35:42;2.70;;;1.23;;
65047;SDS011;52089;51.362;-2.384;2022-12-18T16:39:24;3.83;;;1.40;;
65047;SDS011;52089;51.362;-2.384;2022-12-18T16:43:06;5.13;;;1.57;;
65047;SDS011;52089;51.362;-2.384;2022-12-18T16:46:48;3.67;;;1.60;;
65047;SDS011;52089;51.362;-2.384;2022-12-18T16:50:30;3.07;;;1.50;;
65047;SDS011;52089;51.362;-2.384;2022-12-18T17:01:34;4.95;;;1.77;;
65047;SDS011;52089;51.362;-2.384;2022-12-18T17:05:16;4.70;;;1.80;;
65047;SDS011;52089;51.362;-2.384;2022-12-18T17:08:58;3.47;;;1.70;;
65047;SDS011;52089;51.362;-2.384;2022-12-18T17:12:41;4.07;;;1.70;;
65047;SDS011;52089;51.362;-2.384;2022-12-18T17:16:23;3.70;;;2.10;;
65047;SDS011;52089;51.362;-2.384;2022-12-18T17:20:06;4.23;;;2.40;;
65047;SDS011;52089;51.362;-2.384;2022-12-18T17:23:49;5.13;;;2.93;;
65047;SDS011;52089;51.362;-2.384;2022-12-18T17:27:30;4.83;;;1.90;;
65047;SDS011;52089;51.362;-2.384;2022-12-18T17:31:13;3.27;;;1.80;;
65047;SDS011;52089;51.362;-2.384;2022-12-18T17:35:00;4.53;;;1.90;;
65047;SDS011;52089;51.362;-2.384;2022-12-18T17:38:51;7.03;;;2.27;;
65047;SDS011;52089;51.362;-2.384;2022-12-18T17:42:34;5.97;;;2.10;;
65047;SDS011;52089;51.362;-2.384;2022-12-18T17:46:15;7.10;;;2.97;;
65047;SDS011;52089;51.362;-2.384;2022-12-18T17:49:57;7.73;;;2.83;;
65047;SDS011;52089;51.362;-2.384;2022-12-18T17:53:39;4.77;;;2.63;;
65047;SDS011;52089;51.362;-2.384;2022-12-18T17:57:22;5.80;;;2.80;;
65047;SDS011;52089;51.362;-2.384;2022-12-18T18:01:04;5.33;;;2.90;;
65047;SDS011;52089;51.362;-2.384;2022-12-18T18:04:46;8.17;;;3.10;;
65047;SDS011;52089;51.362;-2.384;2022-12-18T18:08:28;6.90;;;2.70;;
65047;SDS011;52089;51.362;-2.384;2022-12-18T18:12:12;7.63;;;2.83;;
65047;SDS011;52089;51.362;-2.384;2022-12-18T18:16:13;10.23;;;3.33;;
65047;SDS011;52089;51.362;-2.384;2022-12-18T18:19:55;7.80;;;2.90;;
65047;SDS011;52089;51.362;-2.384;2022-12-18T18:23:36;11.10;;;3.60;;
65047;SDS011;52089;51.362;-2.384;2022-12-18T18:27:21;9.47;;;4.23;;
65047;SDS011;52089;51.362;-2.384;2022-12-18T18:31:06;7.20;;;2.83;;
65047;SDS011;52089;51.362;-2.384;2022-12-18T18:34:49;6.23;;;2.80;;
65047;SDS011;52089;51.362;-2.384;2022-12-18T18:38:31;7.33;;;3.13;;
65047;SDS011;52089;51.362;-2.384;2022-12-18T18:42:13;6.30;;;3.33;;
65047;SDS011;52089;51.362;-2.384;2022-12-18T18:45:55;6.60;;;2.73;;
65047;SDS011;52089;51.362;-2.384;2022-12-18T18:49:38;4.40;;;2.03;;
65047;SDS011;52089;51.362;-2.384;2022-12-18T18:53:20;5.50;;;2.10;;
65047;SDS011;52089;51.362;-2.384;2022-12-18T18:57:02;4.97;;;1.80;;
65047;SDS011;52089;51.362;-2.384;2022-12-18T19:01:02;9.37;;;1.70;;
65047;SDS011;52089;51.362;-2.384;2022-12-18T19:04:46;7.77;;;1.67;;
65047;SDS011;52089;51.362;-2.384;2022-12-18T19:08:28;3.63;;;1.43;;
65047;SDS011;52089;51.362;-2.384;2022-12-18T19:12:14;3.40;;;1.63;;
65047;SDS011;52089;51.362;-2.384;2022-12-18T19:16:14;5.82;;;1.65;;
65047;SDS011;52089;51.362;-2.384;2022-12-18T19:20:04;4.22;;;1.10;;
65047;SDS011;52089;51.362;-2.384;2022-12-18T19:23:48;4.30;;;1.10;;
65047;SDS011;52089;51.362;-2.384;2022-12-18T19:27:30;1.97;;;0.80;;
65047;SDS011;52089;51.362;-2.384;2022-12-18T19:31:13;3.83;;;0.80;;
65047;SDS011;52089;51.362;-2.384;2022-12-18T19:35:04;1.30;;;0.53;;
65047;SDS011;52089;51.362;-2.384;2022-12-18T19:38:48;1.60;;;0.93;;
65047;SDS011;52089;51.362;-2.384;2022-12-18T19:42:30;2.60;;;0.80;;
65047;SDS011;52089;51.362;-2.384;2022-12-18T19:46:16;1.60;;;0.60;;
65047;SDS011;52089;51.362;-2.384;2022-12-18T19:50:03;4.43;;;0.90;;
65047;SDS011;52089;51.362;-2.384;2022-12-18T19:53:45;5.03;;;0.60;;
65047;SDS011;52089;51.362;-2.384;2022-12-18T19:57:27;4.57;;;0.83;;
65047;SDS011;52089;51.362;-2.384;2022-12-18T20:01:10;5.00;;;0.83;;
65047;SDS011;52089;51.362;-2.384;2022-12-18T20:04:57;5.50;;;0.70;;
65047;SDS011;52089;51.362;-2.384;2022-12-18T20:08:39;2.83;;;1.00;;
65047;SDS011;52089;51.362;-2.384;2022-12-18T20:12:21;5.33;;;1.00;;
65047;SDS011;52089;51.362;-2.384;2022-12-18T20:16:03;3.23;;;0.90;;
65047;SDS011;52089;51.362;-2.384;2022-12-18T20:19:45;9.20;;;1.37;;
65047;SDS011;52089;51.362;-2.384;2022-12-18T20:23:27;5.00;;;1.57;;
65047;SDS011;52089;51.362;-2.384;2022-12-18T20:27:12;6.63;;;1.13;;
65047;SDS011;52089;51.362;-2.384;2022-12-18T20:30:59;6.13;;;1.10;;
65047;SDS011;52089;51.362;-2.384;2022-12-18T20:34:41;4.30;;;0.83;;
65047;SDS011;52089;51.362;-2.384;2022-12-18T20:38:24;2.73;;;1.00;;
65047;SDS011;52089;51.362;-2.384;2022-12-18T20:42:07;2.43;;;0.70;;
65047;SDS011;52089;51.362;-2.384;2022-12-18T20:45:48;2.77;;;0.77;;
65047;SDS011;52089;51.362;-2.384;2022-12-18T20:49:30;1.53;;;0.60;;
65047;SDS011;52089;51.362;-2.384;2022-12-18T20:53:12;1.17;;;0.40;;
65047;SDS011;52089;51.362;-2.384;2022-12-18T20:56:55;0.70;;;0.30;;
65047;SDS011;52089;51.362;-2.384;2022-12-18T21:00:37;4.77;;;2.77;;
65047;SDS011;52089;51.362;-2.384;2022-12-18T21:04:19;2.10;;;1.30;;
65047;SDS011;52089;51.362;-2.384;2022-12-18T21:08:02;2.33;;;0.60;;
65047;SDS011;52089;51.362;-2.384;2022-12-18T21:11:44;2.73;;;0.70;;
65047;SDS011;52089;51.362;-2.384;2022-12-18T21:15:44;3.17;;;0.50;;
65047;SDS011;52089;51.362;-2.384;2022-12-18T21:19:26;4.27;;;0.87;;
65047;SDS011;52089;51.362;-2.384;2022-12-18T21:23:09;5.17;;;1.10;;
65047;SDS011;52089;51.362;-2.384;2022-12-18T21:26:57;3.07;;;0.80;;
65047;SDS011;52089;51.362;-2.384;2022-12-18T21:30:39;3.47;;;0.93;;
65047;SDS011;52089;51.362;-2.384;2022-12-18T21:34:22;5.20;;;1.23;;
65047;SDS011;52089;51.362;-2.384;2022-12-18T21:38:08;6.43;;;1.43;;
65047;SDS011;52089;51.362;-2.384;2022-12-18T21:41:50;4.53;;;1.60;;
65047;SDS011;52089;51.362;-2.384;2022-12-18T21:45:56;6.07;;;0.90;;
65047;SDS011;52089;51.362;-2.384;2022-12-18T21:49:40;6.77;;;1.37;;
65047;SDS011;52089;51.362;-2.384;2022-12-18T21:53:23;5.60;;;1.00;;
65047;SDS011;52089;51.362;-2.384;2022-12-18T21:57:05;6.57;;;2.30;;
65047;SDS011;52089;51.362;-2.384;2022-12-18T22:00:48;5.13;;;1.27;;
65047;SDS011;52089;51.362;-2.384;2022-12-18T22:04:30;4.10;;;1.10;;
65047;SDS011;52089;51.362;-2.384;2022-12-18T22:08:12;6.57;;;1.17;;
65047;SDS011;52089;51.362;-2.384;2022-12-18T22:11:54;8.47;;;1.40;;
65047;SDS011;52089;51.362;-2.384;2022-12-18T22:15:36;4.23;;;0.77;;
65047;SDS011;52089;51.362;-2.384;2022-12-18T22:19:18;3.67;;;0.60;;
65047;SDS011;52089;51.362;-2.384;2022-12-18T22:23:00;3.47;;;0.80;;
65047;SDS011;52089;51.362;-2.384;2022-12-18T22:26:46;5.63;;;1.07;;
65047;SDS011;52089;51.362;-2.384;2022-12-18T22:30:29;4.73;;;0.73;;
65047;SDS011;52089;51.362;-2.384;2022-12-18T22:34:11;8.07;;;1.00;;
65047;SDS011;52089;51.362;-2.384;2022-12-18T22:37:53;5.83;;;1.00;;
65047;SDS011;52089;51.362;-2.384;2022-12-18T22:41:37;4.90;;;1.07;;
65047;SDS011;52089;51.362;-2.384;2022-12-18T22:45:19;4.67;;;0.70;;
65047;SDS011;52089;51.362;-2.384;2022-12-18T22:49:02;3.40;;;0.50;;
65047;SDS011;52089;51.362;-2.384;2022-12-18T22:52:45;2.93;;;0.60;;
65047;SDS011;52089;51.362;-2.384;2022-12-18T22:56:26;4.37;;;0.60;;
65047;SDS011;52089;51.362;-2.384;2022-12-18T23:00:09;5.87;;;0.60;;
65047;SDS011;52089;51.362;-2.384;2022-12-18T23:03:51;2.03;;;0.57;;
65047;SDS011;52089;51.362;-2.384;2022-12-18T23:07:36;1.83;;;0.43;;
65047;SDS011;52089;51.362;-2.384;2022-12-18T23:11:19;5.87;;;0.70;;
65047;SDS011;52089;51.362;-2.384;2022-12-18T23:15:01;1.77;;;0.47;;
65047;SDS011;52089;51.362;-2.384;2022-12-18T23:18:46;2.93;;;0.33;;
65047;SDS011;52089;51.362;-2.384;2022-12-18T23:22:36;2.67;;;0.40;;
65047;SDS011;52089;51.362;-2.384;2022-12-18T23:26:19;2.10;;;0.30;;
65047;SDS011;52089;51.362;-2.384;2022-12-18T23:30:03;1.27;;;0.20;;
65047;SDS011;52089;51.362;-2.384;2022-12-18T23:33:46;1.57;;;0.30;;
65047;SDS011;52089;51.362;-2.384;2022-12-18T23:37:30;1.77;;;0.23;;
65047;SDS011;52089;51.362;-2.384;2022-12-18T23:41:31;1.13;;;0.10;;
65047;SDS011;52089;51.362;-2.384;2022-12-18T23:45:22;2.87;;;0.27;;
65047;SDS011;52089;51.362;-2.384;2022-12-18T23:49:05;3.15;;;0.20;;
65047;SDS011;52089;51.362;-2.384;2022-12-18T23:52:51;2.30;;;0.30;;
65047;SDS011;52089;51.362;-2.384;2022-12-18T23:56:34;1.03;;;0.30;;
